East Sutton Ridge, Vermont
Current Conditions -  °F | °C
As of 4:35 PM on Friday 24 Oct 2014 (Local Time) from KCDA Reporting Station
Overcast Overcast  
Wind Chill: 39°   Ceiling: 900
Heat Index: 44°   Visibility: 7mi
Dew Point: 40°   Wind: 9mph
Humidity: 85%   Direction: 290°WNW
Pressure: 29.77"   Gusts: NA
Location:  44.6632°N, 72.0391°W
Report Text: KCDA 242035Z AUTO 29008KT 7SM OVC009 07/04 A2977 RMK AO2 T00660043
Loading
Personal Weather Stations






























Interactive Weather Map New forecast layout! Learn more

10-Day Weather Forecast

Advertisements
Track Severe Weather on mobile